createdAt,value
2023-06-28T00:01:38.038Z,100157.25
2023-06-28T00:04:17.412Z,100123.25
2023-06-28T00:06:47.773Z,100124.38
2023-06-28T00:09:17.099Z,100101.78
2023-06-28T00:11:46.837Z,100096.84
2023-06-28T00:14:15.224Z,100075.25
2023-06-28T00:16:47.315Z,100070.78
2023-06-28T00:19:29.098Z,100046.63
2023-06-28T00:22:00.611Z,100051.22
2023-06-28T00:24:30.781Z,100047.00
2023-06-28T00:26:59.056Z,100080.38
2023-06-28T00:29:28.674Z,100048.94
2023-06-28T00:31:57.177Z,100061.97
2023-06-28T00:34:25.385Z,100118.31
2023-06-28T00:36:54.170Z,100123.19
2023-06-28T00:39:23.847Z,100132.41
2023-06-28T00:41:52.151Z,100166.94
2023-06-28T00:44:20.434Z,100184.97
2023-06-28T00:46:50.362Z,100207.25
2023-06-28T00:49:19.138Z,100215.31
2023-06-28T00:51:48.607Z,100194.22
2023-06-28T00:54:17.399Z,100208.00
2023-06-28T00:56:49.361Z,100189.56
2023-06-28T00:59:18.108Z,100178.06
2023-06-28T01:01:50.655Z,100149.28
2023-06-28T01:04:19.496Z,100145.84
2023-06-28T01:06:53.269Z,100114.00
2023-06-28T01:09:22.930Z,100126.69
2023-06-28T01:11:55.578Z,100122.06
2023-06-28T01:14:25.514Z,100137.00
2023-06-28T01:16:56.655Z,100173.88
2023-06-28T01:19:26.290Z,100172.69
2023-06-28T01:21:58.583Z,100170.38
2023-06-28T01:24:28.885Z,100192.22
2023-06-28T01:26:59.882Z,100197.97
2023-06-28T01:29:28.401Z,100219.00
2023-06-28T01:31:57.582Z,100240.84
2023-06-28T01:34:27.949Z,100236.97
2023-06-28T01:36:59.251Z,100244.22
2023-06-28T01:39:30.817Z,100257.66
2023-06-28T01:42:01.935Z,100259.66
2023-06-28T01:44:31.636Z,100249.66
2023-06-28T01:47:00.278Z,100239.34
2023-06-28T01:49:29.203Z,100256.22
2023-06-28T01:51:57.892Z,100253.13
2023-06-28T01:54:26.219Z,100253.13
2023-06-28T01:56:55.928Z,100253.13
2023-06-28T01:59:24.317Z,100245.09
2023-06-28T02:04:55.159Z,100237.47
2023-06-28T02:07:23.572Z,100230.56
2023-06-28T02:09:51.876Z,100230.56
2023-06-28T02:12:21.526Z,100239.72
2023-06-28T02:14:52.925Z,100234.78
2023-06-28T02:17:22.021Z,100237.44
2023-06-28T02:19:50.518Z,100235.16
2023-06-28T02:22:20.281Z,100231.34
2023-06-28T02:24:48.902Z,100211.88
2023-06-28T02:27:17.363Z,100221.44
2023-06-28T02:29:46.938Z,100215.31
2023-06-28T02:32:15.147Z,100200.38
2023-06-28T02:34:43.394Z,100204.56
2023-06-28T02:37:11.679Z,100229.88
2023-06-28T02:39:39.878Z,100216.81
2023-06-28T02:42:08.953Z,100217.66
2023-06-28T02:44:37.486Z,100230.69
2023-06-28T02:47:07.803Z,100229.53
2023-06-28T02:49:36.127Z,100221.88
2023-06-28T02:52:04.650Z,100238.28
2023-06-28T02:54:32.786Z,100233.28
2023-06-28T02:57:01.092Z,100258.50
2023-06-28T02:59:29.246Z,100260.09
2023-06-28T03:01:57.508Z,100265.03
2023-06-28T03:04:28.955Z,100257.34
2023-06-28T03:06:57.729Z,100252.03
2023-06-28T03:09:26.139Z,100215.25
2023-06-28T03:11:54.278Z,100197.16
2023-06-28T03:14:22.428Z,100184.94
2023-06-28T03:16:50.715Z,100160.47
2023-06-28T03:19:18.910Z,100127.25
2023-06-28T03:21:48.449Z,100119.25
2023-06-28T03:24:16.588Z,100085.53
2023-06-28T03:26:44.889Z,100034.56
2023-06-28T03:29:13.048Z,100022.75
2023-06-28T03:31:41.322Z,100025.94
2023-06-28T03:34:09.562Z,100018.72
2023-06-28T03:36:42.642Z,100056.50
2023-06-28T03:39:18.788Z,100047.03
2023-06-28T03:41:46.954Z,100052.41
2023-06-28T03:44:15.619Z,100050.59
2023-06-28T03:46:43.862Z,99997.38
2023-06-28T03:49:12.117Z,99979.75
2023-06-28T03:51:40.435Z,99987.47
2023-06-28T03:54:08.711Z,99978.25
2023-06-28T03:56:38.260Z,99981.69
2023-06-28T03:59:06.381Z,100000.81
2023-06-28T04:01:35.266Z,99960.22
2023-06-28T04:04:03.650Z,99958.69
2023-06-28T04:06:32.010Z,99963.59
2023-06-28T04:09:00.263Z,100011.06
2023-06-28T04:11:28.894Z,100040.19
2023-06-28T04:13:58.389Z,100058.13
2023-06-28T04:16:26.660Z,100077.28
2023-06-28T04:18:54.958Z,100081.13
2023-06-28T04:21:23.053Z,100089.56
2023-06-28T04:23:51.277Z,100087.25
2023-06-28T04:26:20.734Z,100083.09
2023-06-28T04:28:48.909Z,100088.00
2023-06-28T04:31:18.657Z,100127.47
2023-06-28T04:33:47.344Z,100114.09
2023-06-28T04:36:15.546Z,100104.47
2023-06-28T04:38:43.717Z,100107.97
2023-06-28T04:41:11.971Z,100146.97
2023-06-28T04:43:41.945Z,100166.88
2023-06-28T04:46:13.346Z,100156.16
2023-06-28T04:48:45.056Z,100143.16
2023-06-28T04:51:13.738Z,100197.25
2023-06-28T04:53:42.020Z,100254.97
2023-06-28T04:56:11.011Z,100311.59
2023-06-28T04:58:39.861Z,100356.91
2023-06-28T05:01:09.439Z,100349.63
2023-06-28T05:03:40.183Z,100351.91
2023-06-28T05:06:11.450Z,100364.50
2023-06-28T05:08:39.754Z,100380.13
2023-06-28T05:11:09.043Z,100386.97
2023-06-28T05:13:37.545Z,100392.84
2023-06-28T05:16:06.066Z,100379.38
2023-06-28T05:18:34.274Z,100396.63
2023-06-28T05:21:02.527Z,100405.09
2023-06-28T05:23:32.147Z,100410.81
2023-06-28T05:26:00.301Z,100416.53
2023-06-28T05:28:28.514Z,100415.41
2023-06-28T05:30:56.864Z,100411.22
2023-06-28T05:33:24.907Z,100416.97
2023-06-28T05:35:53.272Z,100434.59
2023-06-28T05:38:21.503Z,100437.56
2023-06-28T05:40:56.344Z,100447.91
2023-06-28T05:43:24.706Z,100468.97
2023-06-28T05:45:53.982Z,100459.72
2023-06-28T05:48:22.347Z,100464.00
2023-06-28T05:50:51.192Z,100477.00
2023-06-28T05:53:19.859Z,100470.47
2023-06-28T05:55:48.033Z,100485.75
2023-06-28T05:58:17.979Z,100486.19
2023-06-28T06:00:46.522Z,100491.97
2023-06-28T06:03:15.130Z,100506.50
2023-06-28T06:05:43.595Z,100500.03
2023-06-28T06:08:11.909Z,100500.38
2023-06-28T06:10:40.585Z,100499.63
2023-06-28T06:13:09.001Z,100504.22
2023-06-28T06:15:38.679Z,100505.44
2023-06-28T06:18:07.256Z,100515.03
2023-06-28T06:20:38.190Z,100516.25
2023-06-28T06:23:06.460Z,100517.38
2023-06-28T06:25:34.741Z,100525.81
2023-06-28T06:28:03.145Z,100531.56
2023-06-28T06:30:31.616Z,100527.34
2023-06-28T06:33:01.559Z,100528.91
2023-06-28T06:35:29.904Z,100534.28
2023-06-28T06:37:58.150Z,100533.16
2023-06-28T06:40:26.303Z,100537.75
2023-06-28T06:42:54.613Z,100538.53
2023-06-28T06:45:22.912Z,100550.03
2023-06-28T06:47:51.996Z,100549.66
2023-06-28T06:50:21.828Z,100562.72
2023-06-28T06:52:51.428Z,100557.75
2023-06-28T06:55:19.793Z,100568.88
2023-06-28T06:57:48.006Z,100570.47
2023-06-28T07:00:17.782Z,100568.19
2023-06-28T07:02:46.155Z,100577.34
2023-06-28T07:05:16.053Z,100577.75
2023-06-28T07:07:45.731Z,100575.81
2023-06-28T07:10:14.142Z,100584.25
2023-06-28T07:12:43.117Z,100580.03
2023-06-28T07:15:12.432Z,100592.25
2023-06-28T07:17:40.713Z,100585.44
2023-06-28T07:20:10.473Z,100591.13
2023-06-28T07:22:38.813Z,100595.75
2023-06-28T07:25:09.933Z,100593.84
2023-06-28T07:27:38.424Z,100587.69
2023-06-28T07:30:10.204Z,100595.75
2023-06-28T07:32:38.553Z,100598.06
2023-06-28T07:35:07.911Z,100583.88
2023-06-28T07:37:36.505Z,100583.53
2023-06-28T07:40:09.378Z,100586.97
2023-06-28T07:42:38.416Z,100598.06
2023-06-28T07:45:07.334Z,100600.72
2023-06-28T07:47:35.613Z,100609.91
2023-06-28T07:50:04.914Z,100606.09
2023-06-28T07:52:33.374Z,100598.06
2023-06-28T07:55:03.991Z,100600.34
2023-06-28T07:57:33.704Z,100605.69
2023-06-28T08:00:01.775Z,100614.53
2023-06-28T08:02:30.224Z,100597.28
2023-06-28T08:04:59.893Z,100602.22
2023-06-28T08:07:28.107Z,100595.28
2023-06-28T08:09:56.358Z,100595.59
2023-06-28T08:12:24.562Z,100599.25
2023-06-28T08:14:54.342Z,100591.53
2023-06-28T08:17:22.822Z,100595.22
2023-06-28T08:19:51.137Z,100586.22
2023-06-28T08:22:19.626Z,100576.50
2023-06-28T08:24:47.772Z,100570.81
2023-06-28T08:27:16.107Z,100582.56
2023-06-28T08:29:44.252Z,100585.09
2023-06-28T08:32:13.769Z,100588.56
2023-06-28T08:34:41.949Z,100585.50
2023-06-28T08:37:10.345Z,100586.56
2023-06-28T08:39:38.842Z,100587.63
2023-06-28T08:42:07.938Z,100583.50
2023-06-28T08:44:39.345Z,100570.31
2023-06-28T08:47:09.290Z,100588.53
2023-06-28T08:49:39.241Z,100582.09
2023-06-28T08:52:08.596Z,100579.31
2023-06-28T08:54:37.187Z,100576.22
2023-06-28T08:57:12.328Z,100586.41
2023-06-28T08:59:42.221Z,100589.06
2023-06-28T09:02:11.588Z,100570.03
2023-06-28T09:04:41.331Z,100563.44
2023-06-28T09:07:10.409Z,100568.91
2023-06-28T09:09:42.558Z,100573.34
2023-06-28T09:12:12.158Z,100565.38
2023-06-28T09:14:41.267Z,100565.81
2023-06-28T09:17:09.463Z,100577.81
2023-06-28T09:19:38.082Z,100564.97
2023-06-28T09:22:10.173Z,100574.09
2023-06-28T09:24:39.191Z,100560.06
2023-06-28T09:27:09.042Z,100566.56
2023-06-28T09:29:37.384Z,100568.69
2023-06-28T09:32:06.709Z,100556.00
2023-06-28T09:34:36.212Z,100561.44
2023-06-28T09:37:08.299Z,100567.72
2023-06-28T09:39:41.847Z,100562.31
2023-06-28T09:42:10.314Z,100562.63
2023-06-28T09:44:38.500Z,100553.97
2023-06-28T09:47:07.601Z,100549.88
2023-06-28T09:49:43.060Z,100547.00
2023-06-28T09:52:12.543Z,100546.94
2023-06-28T09:54:46.449Z,100556.59
2023-06-28T09:57:15.492Z,100549.56
2023-06-28T09:59:45.815Z,100548.31
2023-06-28T10:02:15.201Z,100549.38
2023-06-28T10:04:43.990Z,100536.56
2023-06-28T10:07:15.727Z,100539.19
2023-06-28T10:09:44.358Z,100542.44
2023-06-28T10:12:15.019Z,100538.88
2023-06-28T10:14:47.087Z,100541.97
2023-06-28T10:17:15.726Z,100546.47
2023-06-28T10:19:45.295Z,100544.69
2023-06-28T10:22:16.503Z,100533.59
2023-06-28T10:24:45.617Z,100543.00
2023-06-28T10:27:15.307Z,100533.13
2023-06-28T10:29:44.341Z,100545.41
2023-06-28T10:32:13.483Z,100529.28
2023-06-28T10:34:43.048Z,100533.59
2023-06-28T10:37:11.496Z,100528.41
2023-06-28T10:39:41.216Z,100525.28
2023-06-28T10:42:09.860Z,100523.28
2023-06-28T10:44:52.560Z,100522.09
2023-06-28T10:47:21.191Z,100525.03
2023-06-28T10:50:07.195Z,100532.75
2023-06-28T10:52:36.201Z,100530.34
2023-06-28T10:55:13.206Z,100527.16
2023-06-28T10:57:42.193Z,100515.25
2023-06-28T11:00:31.750Z,100523.00
2023-06-28T11:03:05.550Z,100523.16
2023-06-28T11:05:41.902Z,100511.75
2023-06-28T11:08:11.628Z,100514.16
2023-06-28T11:10:43.160Z,100515.34
2023-06-28T11:13:11.649Z,100523.63
2023-06-28T11:15:45.502Z,100513.53
2023-06-28T11:18:19.693Z,100517.44
2023-06-28T11:20:55.646Z,100512.34
2023-06-28T11:23:38.672Z,100524.94
2023-06-28T11:26:12.175Z,100509.88
2023-06-28T11:28:49.770Z,100520.22
2023-06-28T11:31:22.720Z,100505.59
2023-06-28T11:33:52.334Z,100509.69
2023-06-28T11:36:20.896Z,100496.56
2023-06-28T11:38:49.097Z,100493.66
2023-06-28T11:41:19.968Z,100507.81
2023-06-28T11:43:49.444Z,100496.59
2023-06-28T11:46:19.721Z,100497.00
2023-06-28T11:48:49.116Z,100492.63
2023-06-28T11:51:17.589Z,100484.94
2023-06-28T11:53:50.155Z,100484.66
2023-06-28T11:56:20.181Z,100498.56
2023-06-28T11:58:48.476Z,100483.31
2023-06-28T12:01:26.243Z,100494.09
2023-06-28T12:03:54.622Z,100481.19
2023-06-28T12:06:22.954Z,100480.31
2023-06-28T12:08:51.123Z,100473.66
2023-06-28T12:11:20.684Z,100458.16
2023-06-28T12:13:48.964Z,100469.06
2023-06-28T12:16:18.354Z,100457.59
2023-06-28T12:19:00.372Z,100464.84
2023-06-28T12:21:30.074Z,100461.50
2023-06-28T12:24:13.876Z,100458.34
2023-06-28T12:26:45.443Z,100445.88
2023-06-28T12:29:13.993Z,100455.00
2023-06-28T12:31:48.400Z,100461.03
2023-06-28T12:34:22.767Z,100450.75
2023-06-28T12:36:52.919Z,100446.50
2023-06-28T12:39:23.680Z,100438.84
2023-06-28T12:42:05.346Z,100433.88
2023-06-28T12:44:49.492Z,100435.09
2023-06-28T12:47:18.070Z,100443.47
2023-06-28T12:49:46.852Z,100436.38
2023-06-28T12:52:15.440Z,100451.44
2023-06-28T12:54:43.848Z,100439.09
2023-06-28T12:57:13.791Z,100436.63
2023-06-28T12:59:42.759Z,100437.88
2023-06-28T13:02:11.240Z,100440.50
2023-06-28T13:04:40.020Z,100427.31
2023-06-28T13:07:09.571Z,100436.25
2023-06-28T13:09:37.943Z,100435.47
2023-06-28T13:12:08.367Z,100428.19
2023-06-28T13:14:38.163Z,100429.47
2023-06-28T13:17:07.525Z,100426.16
2023-06-28T13:19:36.083Z,100432.88
2023-06-28T13:22:04.500Z,100432.47
2023-06-28T13:24:32.646Z,100426.72
2023-06-28T13:27:00.722Z,100427.28
2023-06-28T13:29:29.213Z,100425.72
2023-06-28T13:31:59.268Z,100437.53
2023-06-28T13:34:27.785Z,100430.03
2023-06-28T13:36:55.994Z,100407.69
2023-06-28T13:39:24.329Z,100424.03
2023-06-28T13:41:52.508Z,100426.53
2023-06-28T13:44:20.869Z,100417.22
2023-06-28T13:46:49.155Z,100410.09
2023-06-28T13:49:19.402Z,100419.94
2023-06-28T13:51:47.566Z,100422.13
2023-06-28T13:54:15.950Z,100421.03
2023-06-28T13:56:44.989Z,100416.50
2023-06-28T13:59:13.250Z,100407.69
2023-06-28T14:01:41.467Z,100417.44
2023-06-28T14:04:11.260Z,100409.13
2023-06-28T14:06:40.983Z,100397.50
2023-06-28T14:09:09.323Z,100393.44
2023-06-28T14:11:37.599Z,100405.22
2023-06-28T14:14:05.919Z,100412.63
2023-06-28T14:16:34.210Z,100414.88
2023-06-28T14:19:02.449Z,100403.03
2023-06-28T14:21:30.861Z,100409.56
2023-06-28T14:24:00.561Z,100402.22
2023-06-28T14:26:28.823Z,100403.34
2023-06-28T14:28:58.621Z,100406.16
2023-06-28T14:31:27.236Z,100411.03
2023-06-28T14:33:55.602Z,100400.56
2023-06-28T14:36:24.501Z,100412.59
2023-06-28T14:38:53.099Z,100401.53
2023-06-28T14:41:22.812Z,100411.00
2023-06-28T14:43:51.013Z,100411.78
2023-06-28T14:46:19.280Z,100410.75
2023-06-28T14:48:47.997Z,100418.53
2023-06-28T14:51:16.353Z,100419.59
2023-06-28T14:53:44.853Z,100408.53
2023-06-28T14:56:13.243Z,100408.69
2023-06-28T14:58:43.073Z,100406.88
2023-06-28T15:01:11.413Z,100403.44
2023-06-28T15:03:39.951Z,100399.78
2023-06-28T15:06:12.321Z,100385.34
2023-06-28T15:08:40.933Z,100402.69
2023-06-28T15:11:11.748Z,100398.59
2023-06-28T15:13:40.003Z,100388.72
2023-06-28T15:16:09.943Z,100373.38
2023-06-28T15:18:38.193Z,100390.09
2023-06-28T15:21:06.471Z,100396.31
2023-06-28T15:23:35.078Z,100406.16
2023-06-28T15:26:03.894Z,100435.97
2023-06-28T15:28:32.349Z,100423.44
2023-06-28T15:31:00.674Z,100421.09
2023-06-28T15:33:30.620Z,100424.00
2023-06-28T15:35:58.962Z,100431.19
2023-06-28T15:38:28.904Z,100413.88
2023-06-28T15:40:57.364Z,100424.50
2023-06-28T15:43:26.172Z,100425.91
2023-06-28T15:45:54.580Z,100426.06
2023-06-28T15:48:23.135Z,100432.50
2023-06-28T15:50:53.497Z,100422.53
2023-06-28T15:53:22.081Z,100436.31
2023-06-28T15:55:50.474Z,100428.88
2023-06-28T15:58:18.655Z,100420.22
2023-06-28T16:00:49.715Z,100430.41
2023-06-28T16:03:18.170Z,100431.19
2023-06-28T16:05:46.800Z,100425.50
2023-06-28T16:08:16.524Z,100437.06
2023-06-28T16:10:44.923Z,100433.50
2023-06-28T16:13:15.728Z,100426.16
2023-06-28T16:15:44.318Z,100432.25
2023-06-28T16:18:12.841Z,100423.31
2023-06-28T16:20:41.331Z,100435.34
2023-06-28T16:23:09.813Z,100433.13
2023-06-28T16:25:39.427Z,100423.06
2023-06-28T16:28:07.597Z,100436.47
2023-06-28T16:30:35.901Z,100432.97
2023-06-28T16:33:09.891Z,100422.72
2023-06-28T16:35:38.159Z,100432.00
2023-06-28T16:38:06.627Z,100427.44
2023-06-28T16:40:34.855Z,100415.47
2023-06-28T16:43:05.775Z,100418.41
2023-06-28T16:45:34.581Z,100402.63
2023-06-28T16:48:03.154Z,100416.44
2023-06-28T16:50:31.497Z,100429.72
2023-06-28T16:52:59.685Z,100423.66
2023-06-28T16:55:29.408Z,100422.06
2023-06-28T16:57:57.632Z,100421.56
2023-06-28T17:00:27.398Z,100421.66
2023-06-28T17:02:55.949Z,100420.66
2023-06-28T17:05:24.291Z,100401.00
2023-06-28T17:07:52.601Z,100408.06
2023-06-28T17:10:20.999Z,100422.75
2023-06-28T17:12:49.262Z,100405.97
2023-06-28T17:15:17.647Z,100422.50
2023-06-28T17:17:48.613Z,100424.06
2023-06-28T17:20:18.564Z,100427.34
2023-06-28T17:22:47.125Z,100422.81
2023-06-28T17:25:16.826Z,100436.78
2023-06-28T17:27:45.986Z,100425.94
2023-06-28T17:30:14.992Z,100416.09
2023-06-28T17:32:44.697Z,100422.25
2023-06-28T17:35:17.539Z,100426.28
2023-06-28T17:37:47.601Z,100433.66
2023-06-28T17:40:18.505Z,100437.06
2023-06-28T17:42:47.665Z,100424.53
2023-06-28T17:45:17.235Z,100442.84
2023-06-28T17:47:48.370Z,100443.78
2023-06-28T17:50:21.485Z,100427.75
2023-06-28T17:52:51.289Z,100430.94
2023-06-28T17:55:22.013Z,100433.06
2023-06-28T17:57:52.211Z,100425.22
2023-06-28T18:00:22.728Z,100433.50
2023-06-28T18:02:53.937Z,100416.69
2023-06-28T18:05:28.632Z,100422.63
2023-06-28T18:08:01.430Z,100420.69
2023-06-28T18:10:31.639Z,100424.09
2023-06-28T18:13:02.779Z,100420.09
2023-06-28T18:15:33.742Z,100428.28
2023-06-28T18:18:04.707Z,100417.72
2023-06-28T18:20:37.092Z,100425.47
2023-06-28T18:23:07.255Z,100426.31
2023-06-28T18:25:37.753Z,100438.31
2023-06-28T18:28:08.341Z,100423.06
2023-06-28T18:30:39.757Z,100435.59
2023-06-28T18:33:09.113Z,100436.91
2023-06-28T18:35:41.650Z,100434.66
2023-06-28T18:38:13.360Z,100435.53
2023-06-28T18:40:44.288Z,100436.06
2023-06-28T18:43:15.794Z,100453.38
2023-06-28T18:45:50.181Z,100443.41
2023-06-28T18:48:22.078Z,100437.75
2023-06-28T18:50:55.042Z,100444.03
2023-06-28T18:53:25.191Z,100459.06
2023-06-28T18:55:55.979Z,100449.22
2023-06-28T18:58:31.720Z,100468.47
2023-06-28T19:01:03.501Z,100465.09
2023-06-28T19:03:34.641Z,100471.66
2023-06-28T19:06:07.223Z,100461.75
2023-06-28T19:08:38.244Z,100466.00
2023-06-28T19:11:09.788Z,100468.03
2023-06-28T19:13:41.650Z,100474.22
2023-06-28T19:16:14.379Z,100474.63
2023-06-28T19:18:45.148Z,100477.72
2023-06-28T19:21:20.182Z,100481.22
2023-06-28T19:23:51.436Z,100465.91
2023-06-28T19:26:20.961Z,100477.38
2023-06-28T19:28:49.823Z,100473.94
2023-06-28T19:31:18.192Z,100473.94
2023-06-28T19:33:46.789Z,100464.41
2023-06-28T19:36:16.412Z,100480.88
2023-06-28T19:38:44.922Z,100469.41
2023-06-28T19:41:13.196Z,100470.16
2023-06-28T19:43:41.566Z,100475.16
2023-06-28T19:46:10.136Z,100481.25
2023-06-28T19:48:39.805Z,100482.06
2023-06-28T19:51:08.520Z,100492.78
2023-06-28T19:53:38.546Z,100486.66
2023-06-28T19:56:07.116Z,100489.72
2023-06-28T19:58:36.223Z,100488.16
2023-06-28T20:01:06.242Z,100495.81
2023-06-28T20:03:37.350Z,100496.59
2023-06-28T20:06:06.067Z,100493.94
2023-06-28T20:08:34.594Z,100488.59
2023-06-28T20:11:04.239Z,100498.53
2023-06-28T20:13:32.758Z,100500.06
2023-06-28T20:16:04.154Z,100497.75
2023-06-28T20:18:32.809Z,100488.19
2023-06-28T20:21:01.281Z,100485.13
2023-06-28T20:23:30.563Z,100499.28
2023-06-28T20:25:58.943Z,100507.31
2023-06-28T20:28:28.593Z,100494.31
2023-06-28T20:30:57.635Z,100491.25
2023-06-28T20:33:25.854Z,100490.47
2023-06-28T20:35:54.422Z,100503.47
2023-06-28T20:38:22.687Z,100501.97
2023-06-28T20:40:51.189Z,100503.47
2023-06-28T20:43:19.767Z,100508.06
2023-06-28T20:45:49.663Z,100506.94
2023-06-28T20:48:18.754Z,100504.66
2023-06-28T20:50:47.356Z,100507.31
2023-06-28T20:53:15.612Z,100498.09
2023-06-28T20:55:44.040Z,100488.16
2023-06-28T20:58:12.427Z,100500.00
2023-06-28T21:00:40.617Z,100500.75
2023-06-28T21:03:10.435Z,100506.47
2023-06-28T21:05:39.269Z,100495.75
2023-06-28T21:08:07.375Z,100499.97
2023-06-28T21:10:36.381Z,100496.56
2023-06-28T21:13:04.741Z,100515.28
2023-06-28T21:15:32.925Z,100506.13
2023-06-28T21:18:01.431Z,100510.34
2023-06-28T21:20:30.984Z,100507.66
2023-06-28T21:22:59.245Z,100513.44
2023-06-28T21:25:27.937Z,100503.47
2023-06-28T21:27:56.218Z,100510.72
2023-06-28T21:30:24.627Z,100507.31
2023-06-28T21:32:52.901Z,100505.41
2023-06-28T21:35:21.760Z,100503.47
2023-06-28T21:37:51.303Z,100500.81
2023-06-28T21:40:19.591Z,100505.03
2023-06-28T21:42:47.894Z,100509.97
2023-06-28T21:45:16.917Z,100511.91
2023-06-28T21:47:45.180Z,100503.06
2023-06-28T21:50:13.465Z,100499.25
2023-06-28T21:52:41.866Z,100503.84
2023-06-28T21:55:11.667Z,100506.13
2023-06-28T21:57:39.826Z,100497.31
2023-06-28T22:00:22.039Z,100495.03
2023-06-28T22:02:50.654Z,100493.50
2023-06-28T22:05:19.302Z,100507.25
2023-06-28T22:07:50.220Z,100493.09
2023-06-28T22:10:20.320Z,100501.91
2023-06-28T22:12:49.117Z,100506.88
2023-06-28T22:15:18.286Z,100501.91
2023-06-28T22:17:47.602Z,100492.72
2023-06-28T22:20:16.742Z,100492.31
2023-06-28T22:22:44.860Z,100496.50
2023-06-28T22:25:13.139Z,100491.13
2023-06-28T22:27:42.740Z,100482.69
2023-06-28T22:30:12.577Z,100480.75
2023-06-28T22:32:46.797Z,100477.31
2023-06-28T22:35:15.554Z,100480.00
2023-06-28T22:37:43.851Z,100482.28
2023-06-28T22:40:12.102Z,100481.91
2023-06-28T22:42:42.297Z,100486.50
2023-06-28T22:45:12.634Z,100470.03
2023-06-28T22:47:40.929Z,100471.97
2023-06-28T22:50:10.017Z,100456.31
2023-06-28T22:52:42.608Z,100461.28
2023-06-28T22:55:11.812Z,100468.53
2023-06-28T22:57:40.149Z,100463.94
2023-06-28T23:00:10.282Z,100476.19
2023-06-28T23:02:40.232Z,100475.03
2023-06-28T23:05:09.353Z,100456.28
2023-06-28T23:07:39.352Z,100459.34
2023-06-28T23:10:08.807Z,100445.56
2023-06-28T23:12:38.094Z,100446.72
2023-06-28T23:15:07.350Z,100437.13
2023-06-28T23:17:35.635Z,100440.91
2023-06-28T23:20:06.124Z,100430.22
2023-06-28T23:22:35.125Z,100426.34
2023-06-28T23:25:03.424Z,100419.09
2023-06-28T23:27:34.729Z,100403.06
2023-06-28T23:30:02.912Z,100401.13
2023-06-28T23:32:31.164Z,100408.34
2023-06-28T23:34:59.625Z,100396.53
2023-06-28T23:37:29.144Z,100381.28
2023-06-28T23:42:42.965Z,100360.63
2023-06-28T23:45:11.869Z,100358.75
2023-06-28T23:47:40.550Z,100348.06
2023-06-28T23:50:10.020Z,100338.91
2023-06-28T23:52:40.327Z,100340.06
2023-06-28T23:55:09.743Z,100344.25
2023-06-28T23:57:38.106Z,100334.31
